Terminal Aerodrome Forecast
Issued by NWS Jackson, MS

Current Version | Previous Version | Text Only | Print | Product List | Glossary On
Versions: 1 2 3 4 5 6 7 8 9 10 11 12 13 14
020
FTUS44 KJAN 261725
TAFMEI
TAF
KMEI 261725Z 2618/2718 14008KT P6SM SKC
     FM271300 15008KT P6SM VCSH BKN050
     FM271500 16009KT P6SM SHRA VCTS OVC050CB=

USA.gov is the U.S. government's official web portal to all federal, state and local government web resources and services.